Pagrindinis puslapis
METAR-TAF:

METAR-TAF

Oro uostai :

Mersing, Malaizija

platuma: 02-23-00N, ilguma: 103-51-34E, Aukštis: 3 m

Dabartinis oras

Ataskaita buvo paskelbta 55 minutes, ne 13:00 UTC
Vėjas 4 kt iš Pietvakarių, svyruoja nuo Pietvakarių ir Šiaurės Vakarų
Temperatūra 25°C
Drėgmė 94%
Slėgis 1007 hPa

METAR: WMAU 121300Z AUTO 23004KT 230V310 //// // ////// 25/24 Q1007

Laikas: 21:55 (13:55 UTC)


TAF: trūkstamas

Orai ataskaitas ir orų prognozės (METAR, TAF).

turimą stotys yra geltonos ir raudonos taškus žemėlapyje.

Perkelti pele per norėdami pamatyti stoties vardą.

Tada spustelėkite, norėdami matyti oro stebėjimo ir prognozės.

Norėdami pakeisti žemėlapį: spustelėkite ant žalios mygtukų su juodo kryžiaus žemyn,; žalią mygtuką su brūkšneliu, jei norite nutolinti; arba žalių rodyklių gretimoms žemėlapius.


METAR-TAF: